Time;durP1;ratioP1;P1;durP2;ratioP2;P2;SDS_P1;SDS_P2;PMS_P1;PMS_P2;Temp;Humidity;BMP_temperature;BMP_pressure;BME280_temperature;BME280_humidity;BME280_pressure;Samples;Min_cycle;Max_cycle;Signal;HPM_P1;HPM_P2
2022/05/06 00:03:32;;;;;;;;;;;13.60;99.90;;;12.33;95.38;95983.25;10429480;28;1849;-74
2022/05/06 00:08:35;;;;;;;;;;;13.50;99.90;;;12.15;100.00;95990.91;10414271;28;1994;-73
2022/05/06 00:13:38;;;;;;;;;;;13.30;99.90;;;11.82;100.00;95995.09;10416071;28;1778;-73
2022/05/06 00:18:42;;;;;;;;;;;13.10;99.90;;;11.58;100.00;96010.25;10422234;28;2005;-74
2022/05/06 00:23:44;;;;;;;;;;;12.80;99.90;;;11.45;100.00;96008.94;10421004;28;1809;-75
2022/05/06 00:28:47;;;;;;;;;;;12.60;99.90;;;11.19;100.00;95999.28;10412955;28;2459;-75
2022/05/06 00:33:50;;;;;;;;;;;12.40;99.90;;;11.00;100.00;96002.53;10426052;28;2144;-75
2022/05/06 00:38:54;;;;;;;;;;;12.10;99.90;;;10.96;100.00;96006.84;10441399;28;1943;-74
2022/05/06 00:43:57;;;;;;;;;;;12.00;99.90;;;10.89;100.00;96005.50;10431788;28;1962;-74
2022/05/06 00:49:00;;;;;;;;;;;11.90;99.90;;;10.82;100.00;96009.28;10433723;28;1918;-72
2022/05/06 00:54:03;;;;;;;;;;;11.80;99.90;;;10.82;100.00;96011.16;10457596;28;1847;-74
2022/05/06 00:59:06;;;;;;;;;;;11.60;99.90;;;10.72;100.00;96008.44;10438756;28;1861;-75
2022/05/06 01:04:10;;;;;;;;;;;11.80;99.90;;;10.65;100.00;95997.97;10432293;28;2060;-74
2022/05/06 01:09:13;;;;;;;;;;;11.60;99.90;;;10.60;100.00;95989.91;10444392;28;1927;-77
2022/05/06 01:14:20;;;;;;;;;;;11.50;99.90;;;10.61;100.00;95988.81;10426916;28;1927;-75
2022/05/06 01:19:24;;;;;;;;;;;11.50;99.90;;;10.59;100.00;95992.84;10427235;28;2084;-75
2022/05/06 01:24:32;;;;;;;;;;;11.50;99.90;;;10.54;100.00;95980.22;10420028;28;1914;-74
2022/05/06 01:29:36;;;;;;;;;;;11.50;99.90;;;10.38;100.00;95979.41;10425205;28;1975;-76
2022/05/06 01:34:40;;;;;;;;;;;11.40;99.90;;;10.25;100.00;95975.34;10436484;28;1911;-74
2022/05/06 01:39:44;;;;;;;;;;;;;;;10.21;100.00;95976.91;10433548;28;2049;-74
2022/05/06 01:44:47;;;;;;;;;;;11.20;99.90;;;10.05;100.00;95969.88;10427945;28;1990;-75
2022/05/06 01:49:50;;;;;;;;;;;11.10;99.90;;;10.10;100.00;95972.59;10422247;28;2041;-75
2022/05/06 01:54:54;;;;;;;;;;;11.00;99.90;;;10.12;100.00;95983.91;10421708;28;1917;-74
2022/05/06 01:59:57;;;;;;;;;;;11.00;99.90;;;10.18;100.00;95979.31;10422278;28;2294;-77
2022/05/06 02:05:21;;;;;;;;;;;11.00;99.90;;;10.36;100.00;95988.78;10432297;28;2110;-75
2022/05/06 02:10:24;;;;;;;;;;;11.20;99.90;;;10.49;100.00;95981.00;10429001;28;1966;-77
2022/05/06 02:15:27;;;;;;;;;;;11.30;99.90;;;10.42;100.00;95993.09;10429616;28;1991;-75
2022/05/06 02:20:30;;;;;;;;;;;11.40;99.90;;;10.40;100.00;95995.25;10423355;28;1958;-76
2022/05/06 02:25:33;;;;;;;;;;;11.30;99.90;;;10.39;100.00;95999.81;10438968;28;2030;-75
2022/05/06 02:35:57;;;;;;;;;;;11.30;99.90;;;10.48;100.00;96002.78;10413516;28;1981;-76
2022/05/06 02:41:00;;;;;;;;;;;11.30;99.90;;;10.42;100.00;95993.91;10419832;28;1986;-76
2022/05/06 02:46:03;;;;;;;;;;;11.30;99.90;;;10.37;100.00;95991.22;10441247;28;2004;-76
2022/05/06 02:51:08;;;;;;;;;;;11.40;99.90;;;10.36;100.00;95984.22;10424280;28;2105;-76
2022/05/06 02:56:11;;;;;;;;;;;11.30;99.90;;;10.40;100.00;96000.63;10441290;28;1979;-75
2022/05/06 03:01:14;;;;;;;;;;;11.30;99.90;;;10.41;100.00;95994.97;10425584;28;1942;-76
2022/05/06 03:06:18;;;;;;;;;;;11.30;99.90;;;10.36;100.00;95994.16;10423643;28;1961;-75
2022/05/06 03:11:21;;;;;;;;;;;11.30;99.90;;;10.31;100.00;95996.84;10438517;28;1966;-76
2022/05/06 03:16:24;;;;;;;;;;;11.20;99.90;;;10.31;100.00;95996.84;10434771;28;1956;-75
2022/05/06 03:21:27;;;;;;;;;;;11.20;99.90;;;10.24;100.00;95987.19;10417641;28;1906;-75
2022/05/06 03:26:30;;;;;;;;;;;11.10;99.90;;;10.27;100.00;95992.00;10419796;28;1908;-76
2022/05/06 03:31:34;;;;;;;;;;;11.10;99.90;;;10.31;100.00;95978.03;10434687;28;1969;-75
2022/05/06 03:36:38;;;;;;;;;;;11.10;99.90;;;10.28;100.00;95987.44;10419159;28;1950;-76
2022/05/06 03:41:42;;;;;;;;;;;11.10;99.90;;;10.25;100.00;95990.66;10431233;28;1997;-76
2022/05/06 03:46:45;;;;;;;;;;;11.10;99.90;;;10.26;100.00;95990.41;10435160;28;1890;-74
2022/05/06 03:51:51;;;;;;;;;;;11.10;99.90;;;10.28;100.00;95993.63;10434820;28;1919;-76
2022/05/06 03:56:54;;;;;;;;;;;11.10;99.90;;;10.26;100.00;95985.03;10438227;28;2010;-76
2022/05/06 04:01:57;;;;;;;;;;;11.10;99.90;;;10.23;100.00;95995.47;10439406;28;1933;-75
2022/05/06 04:07:00;;;;;;;;;;;11.10;99.90;;;10.17;100.00;96007.25;10425874;28;1989;-75
2022/05/06 04:12:03;;;;;;;;;;;11.10;99.90;;;10.22;100.00;96018.81;10440084;28;1922;-74
2022/05/06 04:17:16;;;;;;;;;;;11.10;99.90;;;10.31;100.00;96021.00;10437436;28;1790;-75
2022/05/06 04:27:40;;;;;;;;;;;11.20;99.90;;;10.43;100.00;96040.38;10423166;28;1814;-75
2022/05/06 04:32:43;;;;;;;;;;;11.30;99.90;;;10.43;100.00;96049.28;10441931;28;1914;-74
2022/05/06 04:37:47;;;;;;;;;;;11.30;99.90;;;10.44;100.00;96042.84;10415084;28;1865;-75
2022/05/06 04:42:49;;;;;;;;;;;11.30;99.90;;;10.51;100.00;96051.44;10429679;28;1889;-75
2022/05/06 04:47:52;;;;;;;;;;;11.30;99.90;;;10.55;100.00;96049.81;10446309;28;1979;-75
2022/05/06 04:52:56;;;;;;;;;;;11.40;99.90;;;10.64;100.00;96038.56;10426255;28;1977;-74
2022/05/06 04:57:59;;;;;;;;;;;11.50;99.90;;;10.70;100.00;96049.06;10423136;28;1826;-74
2022/05/06 05:03:04;;;;;;;;;;;11.50;99.90;;;10.72;100.00;96038.03;10436012;28;1865;-75
2022/05/06 05:08:09;;;;;;;;;;;11.50;99.90;;;10.82;100.00;96030.78;10422732;28;1880;-75
2022/05/06 05:13:12;;;;;;;;;;;11.60;99.90;;;10.86;100.00;96043.69;10443040;28;1918;-75
2022/05/06 05:18:15;;;;;;;;;;;11.70;99.90;;;10.88;100.00;96038.84;10428359;28;1885;-74
2022/05/06 05:23:17;;;;;;;;;;;11.70;99.90;;;10.76;100.00;96042.63;10422481;28;1885;-75
2022/05/06 05:28:21;;;;;;;;;;;11.70;99.90;;;10.87;100.00;96053.34;10436399;28;1833;-74
2022/05/06 05:33:25;;;;;;;;;;;11.80;99.90;;;10.99;100.00;96040.44;10422135;28;1915;-74
2022/05/06 05:38:27;;;;;;;;;;;11.80;99.90;;;10.98;100.00;96046.91;10435968;28;1864;-74
2022/05/06 05:48:50;;;;;;;;;;;11.90;99.90;;;10.86;100.00;96035.63;10427720;28;2313;-73
2022/05/06 05:53:53;;;;;;;;;;;11.80;99.90;;;10.93;100.00;96038.84;10450390;28;2217;-74
2022/05/06 05:58:56;;;;;;;;;;;11.80;99.90;;;10.94;100.00;96027.84;10427357;28;1818;-75
2022/05/06 06:03:59;;;;;;;;;;;11.80;99.90;;;11.04;100.00;96032.38;10413215;28;1807;-76
2022/05/06 06:09:02;;;;;;;;;;;11.90;99.90;;;11.02;100.00;96034.56;10453815;28;1822;-76
2022/05/06 06:14:05;;;;;;;;;;;11.90;99.90;;;11.12;100.00;96039.91;10436521;28;1993;-75
2022/05/06 06:19:07;;;;;;;;;;;12.10;99.90;;;11.34;100.00;96035.06;10427994;28;1862;-75
2022/05/06 06:24:10;;;;;;;;;;;12.10;99.90;;;11.23;100.00;96044.22;10450804;28;1834;-73
2022/05/06 06:29:13;;;;;;;;;;;12.20;99.90;;;11.32;100.00;96039.06;10430256;28;1851;-72
2022/05/06 06:34:16;;;;;;;;;;;12.20;99.90;;;11.31;100.00;96040.97;10429717;28;2021;-74
2022/05/06 06:39:19;;;;;;;;;;;12.30;99.90;;;11.03;100.00;96033.47;10425628;28;1895;-75
2022/05/06 06:44:22;;;;;;;;;;;12.20;99.90;;;11.34;100.00;96035.06;10450957;28;1538;-70
2022/05/06 06:49:25;;;;;;;;;;;12.20;99.90;;;11.32;100.00;96037.22;10449017;28;1983;-71
2022/05/06 06:54:29;;;;;;;;;;;12.30;99.90;;;11.44;100.00;96036.09;10443572;28;1797;-71
2022/05/06 06:59:31;;;;;;;;;;;12.30;99.90;;;11.54;100.00;96041.47;10431395;28;1837;-72
2022/05/06 07:04:34;;;;;;;;;;;12.40;99.90;;;11.62;100.00;96039.00;10415235;28;1921;-69
2022/05/06 07:14:58;;;;;;;;;;;12.60;99.90;;;12.02;100.00;96036.47;10411628;28;2004;-71
2022/05/06 07:20:01;;;;;;;;;;;12.80;99.90;;;11.92;100.00;96041.94;10417112;28;2035;-72
2022/05/06 07:25:04;;;;;;;;;;;12.80;99.90;;;12.05;100.00;96049.41;10420102;28;1884;-72
2022/05/06 07:30:08;;;;;;;;;;;13.00;99.90;;;12.10;100.00;96050.22;10427290;28;1961;-70
2022/05/06 07:35:11;;;;;;;;;;;13.00;99.90;;;12.33;100.00;96051.44;10435629;28;1825;-71
2022/05/06 07:40:15;;;;;;;;;;;13.20;99.90;;;11.76;100.00;96057.28;10447364;28;1853;-73
2022/05/06 07:45:18;;;;;;;;;;;13.00;99.90;;;12.29;100.00;96045.00;10419428;28;1893;-73
2022/05/06 07:50:21;;;;;;;;;;;13.00;99.90;;;12.57;100.00;96042.69;10432631;28;1910;-74
2022/05/06 07:55:24;;;;;;;;;;;13.30;99.90;;;12.39;100.00;96047.63;10437707;28;1921;-75
2022/05/06 08:00:27;;;;;;;;;;;13.30;99.90;;;12.27;100.00;96051.75;10415052;28;1817;-74
2022/05/06 08:05:32;;;;;;;;;;;13.20;99.90;;;12.38;100.00;96061.38;10433297;28;1551;-74
2022/05/06 08:10:35;;;;;;;;;;;13.30;99.90;;;12.10;100.00;96065.56;10420765;28;1973;-73
2022/05/06 08:15:37;;;;;;;;;;;13.20;99.90;;;12.20;100.00;96062.81;10440983;28;1579;-73
2022/05/06 08:20:41;;;;;;;;;;;13.20;99.90;;;12.05;100.00;96060.19;10440265;28;1746;-73
2022/05/06 08:25:44;;;;;;;;;;;13.10;99.90;;;12.04;100.00;96066.69;10434342;28;1892;-74
2022/05/06 08:30:48;;;;;;;;;;;13.00;99.90;;;11.94;100.00;96072.09;10426500;28;1914;-75
2022/05/06 08:35:51;;;;;;;;;;;12.90;99.90;;;12.18;100.00;96070.38;10446598;28;1818;-75
2022/05/06 08:40:54;;;;;;;;;;;13.00;99.90;;;11.96;100.00;96072.59;10422045;28;1810;-75
2022/05/06 08:51:18;;;;;;;;;;;13.00;99.90;;;11.85;100.00;96091.53;10427189;28;1983;-74
2022/05/06 08:56:21;;;;;;;;;;;13.00;99.90;;;12.00;100.00;96082.56;10436596;28;1844;-73
2022/05/06 09:01:24;;;;;;;;;;;13.00;99.90;;;12.16;100.00;96084.13;10430557;28;1646;-73
2022/05/06 09:06:27;;;;;;;;;;;13.00;99.90;;;11.71;100.00;96090.44;10445172;28;1736;-73
2022/05/06 09:16:51;;;;;;;;;;;12.70;99.90;;;11.20;100.00;96112.03;10442636;28;1805;-76
2022/05/06 09:21:54;;;;;;;;;;;12.50;99.90;;;11.20;100.00;96117.41;10418832;28;1813;-73
2022/05/06 09:26:58;;;;;;;;;;;12.30;99.90;;;11.15;100.00;96125.47;10415363;28;1806;-75
2022/05/06 09:32:01;;;;;;;;;;;12.20;99.90;;;11.28;100.00;96121.44;10424762;28;1910;-76
2022/05/06 09:37:03;;;;;;;;;;;12.10;99.90;;;11.61;100.00;96122.75;10421685;28;1743;-74
2022/05/06 09:42:06;;;;;;;;;;;12.30;99.90;;;11.72;100.00;96121.69;10420863;28;1878;-73
2022/05/06 09:47:10;;;;;;;;;;;12.50;99.90;;;11.47;100.00;96122.50;10426258;28;1829;-76
2022/05/06 09:52:13;;;;;;;;;;;12.40;99.90;;;11.40;100.00;96121.19;10440267;28;1974;-74
2022/05/06 09:57:18;;;;;;;;;;;12.40;99.90;;;11.04;100.00;96137.31;10438345;28;1790;-73
2022/05/06 10:02:21;;;;;;;;;;;12.10;99.90;;;10.93;100.00;96138.34;10420017;28;1802;-76
2022/05/06 10:07:26;;;;;;;;;;;11.90;99.90;;;10.95;100.00;96146.97;10438924;28;1888;-72
2022/05/06 10:12:28;;;;;;;;;;;12.00;99.90;;;10.99;100.00;96143.47;10440090;28;1983;-73
2022/05/06 10:17:31;;;;;;;;;;;12.00;99.90;;;11.06;100.00;96152.09;10427155;28;1798;-73
2022/05/06 10:22:34;;;;;;;;;;;12.00;99.90;;;10.93;100.00;96151.81;10439439;28;1848;-73
2022/05/06 10:32:58;;;;;;;;;;;11.90;99.90;;;11.01;100.00;96145.91;10420633;28;1943;-74
2022/05/06 10:38:01;;;;;;;;;;;12.10;99.90;;;10.99;100.00;96148.03;10452107;28;1776;-74
2022/05/06 10:43:05;;;;;;;;;;;12.00;99.90;;;11.09;100.00;96153.47;10436950;28;1849;-73
2022/05/06 10:48:08;;;;;;;;;;;12.00;99.90;;;11.05;100.00;96145.09;10442513;28;1821;-73
2022/05/06 10:53:11;;;;;;;;;;;12.10;99.90;;;11.05;100.00;96136.22;10418741;28;1989;-74
2022/05/06 10:58:13;;;;;;;;;;;12.10;99.90;;;11.23;100.00;96143.78;10435753;28;1800;-74
2022/05/06 11:03:20;;;;;;;;;;;12.10;99.90;;;11.52;100.00;96135.19;10439203;28;1900;-72
2022/05/06 11:08:23;;;;;;;;;;;12.30;99.90;;;11.56;100.00;96136.22;10438113;28;1869;-72
2022/05/06 11:13:30;;;;;;;;;;;12.50;99.90;;;11.62;100.00;96135.94;10430501;28;1923;-73
2022/05/06 11:18:32;;;;;;;;;;;12.50;99.90;;;11.64;100.00;96135.66;10445321;28;1761;-74
2022/05/06 11:23:35;;;;;;;;;;;12.60;99.90;;;11.58;100.00;96134.09;10426345;28;1829;-72
2022/05/06 11:28:38;;;;;;;;;;;12.60;99.90;;;11.52;100.00;96132.47;10423053;28;1887;-70
2022/05/06 11:33:42;;;;;;;;;;;12.50;99.90;;;11.56;100.00;96133.53;10438544;28;1918;-72
2022/05/06 11:38:46;;;;;;;;;;;12.50;99.90;;;11.59;100.00;96136.50;10420879;28;1845;-71
2022/05/06 11:43:50;;;;;;;;;;;12.60;99.90;;;11.47;100.00;96127.09;10422062;28;1819;-71
2022/05/06 11:48:52;;;;;;;;;;;12.50;99.90;;;11.49;100.00;96133.00;10435671;28;1817;-73
2022/05/06 11:53:55;;;;;;;;;;;12.50;99.90;;;11.49;100.00;96130.31;10415958;28;1922;-74
2022/05/06 11:58:58;;;;;;;;;;;12.50;99.90;;;11.54;100.00;96119.56;10416648;28;1817;-71
2022/05/06 12:04:07;;;;;;;;;;;12.50;99.90;;;11.77;100.00;96126.22;10440316;28;1821;-72
2022/05/06 12:09:11;;;;;;;;;;;12.70;99.90;;;11.98;100.00;96121.66;10433822;28;1841;-72
2022/05/06 12:14:17;;;;;;;;;;;12.70;99.90;;;12.16;100.00;96121.06;10434414;28;1983;-73
2022/05/06 12:19:20;;;;;;;;;;;12.90;99.90;;;12.55;100.00;96120.38;10435192;28;1824;-71
2022/05/06 12:24:23;;;;;;;;;;;13.10;99.90;;;12.52;100.00;96116.31;10430373;28;1818;-71
2022/05/06 12:29:27;;;;;;;;;;;13.30;99.90;;;12.57;100.00;96112.78;10420532;28;1785;-71
2022/05/06 12:34:31;;;;;;;;;;;13.40;99.90;;;12.58;100.00;96122.50;10443214;28;2080;-72
2022/05/06 12:39:36;;;;;;;;;;;13.40;99.90;;;12.52;100.00;96116.31;10430635;28;1905;-71
2022/05/06 12:44:38;;;;;;;;;;;13.40;99.90;;;12.14;100.00;96123.22;10428560;28;1834;-73
2022/05/06 12:49:41;;;;;;;;;;;13.30;99.90;;;11.82;100.00;96129.75;10434611;28;1950;-71
2022/05/06 12:54:44;;;;;;;;;;;13.00;99.90;;;11.85;100.00;96120.34;10432501;28;1918;-73
2022/05/06 12:59:48;;;;;;;;;;;12.90;99.90;;;11.74;100.00;96130.28;10437462;28;1838;-74
2022/05/06 13:04:50;;;;;;;;;;;12.90;99.90;;;11.78;100.00;96134.06;10440025;28;1910;-72
2022/05/06 13:09:54;;;;;;;;;;;12.80;99.90;;;11.74;100.00;96127.59;10433781;28;1797;-71
2022/05/06 13:14:57;;;;;;;;;;;12.90;99.90;;;11.84;100.00;96126.81;10425130;28;1983;-73
2022/05/06 13:20:00;;;;;;;;;;;12.80;99.90;;;11.74;100.00;96130.28;10424028;28;1923;-71
2022/05/06 13:25:04;;;;;;;;;;;12.80;99.90;;;11.86;100.00;96136.22;10435242;28;1694;-71
2022/05/06 13:30:07;;;;;;;;;;;12.80;99.90;;;12.13;100.00;96127.00;10419989;28;1863;-72
2022/05/06 13:35:10;;;;;;;;;;;13.00;99.90;;;12.04;100.00;96131.34;10424949;28;1922;-72
2022/05/06 13:40:13;;;;;;;;;;;13.10;99.90;;;12.14;100.00;96125.91;10439117;28;1817;-71
2022/05/06 13:45:17;;;;;;;;;;;13.10;99.90;;;12.33;100.00;96118.03;10423880;28;1850;-71
2022/05/06 13:50:19;;;;;;;;;;;13.30;99.90;;;12.13;100.00;96110.81;10420466;28;1875;-71
2022/05/06 13:59:03;;;;;;;;;;;13.20;99.90;;;12.66;100.00;96105.72;10419233;28;1926;-72
2022/05/06 14:00:45;;;;;;;;;;;13.70;99.90;;;12.81;100.00;96097.56;10435597;28;2165;-74
2022/05/06 14:05:48;;;;;;;;;;;13.70;99.90;;;13.35;100.00;96091.22;10422495;28;2175;-74
2022/05/06 14:10:52;;;;;;;;;;;14.10;99.90;;;13.41;100.00;96095.50;10439319;28;1813;-72
2022/05/06 14:15:55;;;;;;;;;;;14.20;99.90;;;13.26;100.00;96095.63;10418298;28;1985;-74
2022/05/06 14:20:59;;;;;;;;;;;14.20;99.90;;;13.34;100.00;96084.22;10429093;28;1881;-75
2022/05/06 14:26:02;;;;;;;;;;;14.20;99.90;;;13.51;100.00;96090.03;10431077;28;2288;-75
2022/05/06 14:31:05;;;;;;;;;;;14.40;99.90;;;13.32;100.00;96085.59;10442768;28;1879;-74
2022/05/06 14:36:08;;;;;;;;;;;14.30;99.90;;;13.03;100.00;96089.03;10444714;28;1997;-76
2022/05/06 14:41:10;;;;;;;;;;;14.10;99.90;;;12.97;100.00;96095.53;10413244;28;1882;-74
2022/05/06 14:46:14;;;;;;;;;;;14.00;99.90;;;13.10;100.00;96083.31;10424525;28;1801;-73
2022/05/06 14:51:17;;;;;;;;;;;14.00;99.90;;;13.07;100.00;96081.19;10418134;28;2162;-74
2022/05/06 14:56:21;;;;;;;;;;;14.00;99.90;;;13.02;100.00;96075.81;10422031;28;1995;-71
2022/05/06 15:01:25;;;;;;;;;;;13.90;99.90;;;13.34;100.00;96084.22;10415167;28;1830;-74
2022/05/06 15:06:28;;;;;;;;;;;14.00;99.90;;;13.46;100.00;96078.47;10415433;28;1877;-73
2022/05/06 15:11:32;;;;;;;;;;;14.20;99.90;;;13.29;100.00;96076.16;10434908;28;1993;-74
2022/05/06 15:16:35;;;;;;;;;;;14.20;99.90;;;13.12;100.00;96086.56;10428173;28;1817;-73
2022/05/06 15:21:39;;;;;;;;;;;14.00;99.90;;;13.32;100.00;96082.91;10439033;28;1809;-71
2022/05/06 15:26:41;;;;;;;;;;;14.00;99.90;;;13.02;100.00;96078.53;10444975;28;1825;-70
2022/05/06 15:31:44;;;;;;;;;;;14.00;99.90;;;13.17;100.00;96078.41;10431077;28;1987;-72
2022/05/06 15:36:48;;;;;;;;;;;14.00;99.90;;;13.35;100.00;96082.31;10421054;28;1841;-72
2022/05/06 15:41:50;;;;;;;;;;;14.10;99.90;;;13.66;100.00;96069.34;10430164;28;1781;-71
2022/05/06 15:46:53;;;;;;;;;;;14.30;99.90;;;13.41;100.00;96090.09;10445925;28;1888;-71
2022/05/06 15:51:58;;;;;;;;;;;14.30;99.90;;;13.45;100.00;96082.25;10433846;28;1988;-71
2022/05/06 15:57:01;;;;;;;;;;;14.30;99.90;;;13.37;100.00;96083.69;10449724;28;1809;-73
2022/05/06 16:02:05;;;;;;;;;;;14.30;99.90;;;13.45;100.00;96083.06;10455100;28;1833;-73
2022/05/06 16:07:08;;;;;;;;;;;13.80;99.90;;;13.44;100.00;96081.44;10443105;28;1765;-71
2022/05/06 16:12:13;;;;;;;;;;;14.20;99.90;;;13.57;100.00;96087.28;10440444;28;1971;-73
2022/05/06 16:17:16;;;;;;;;;;;14.20;99.90;;;13.38;100.00;96077.19;10436605;28;1834;-72
2022/05/06 16:22:21;;;;;;;;;;;14.20;99.90;;;13.28;100.00;96085.34;10439401;28;1797;-73
2022/05/06 16:27:24;;;;;;;;;;;14.20;99.90;;;13.35;100.00;96083.13;10440487;28;1805;-72
2022/05/06 16:32:29;;;;;;;;;;;14.10;99.90;;;13.32;100.00;96081.00;10443281;28;1918;-72
2022/05/06 16:37:32;;;;;;;;;;;14.00;99.90;;;13.35;100.00;96076.94;10446488;28;1806;-71
2022/05/06 16:42:36;;;;;;;;;;;14.20;99.90;;;13.10;100.00;96080.59;10424221;28;1803;-72
2022/05/06 16:47:39;;;;;;;;;;;14.10;99.90;;;13.07;100.00;96081.19;10427621;28;1777;-71
2022/05/06 16:52:42;;;;;;;;;;;14.00;99.90;;;13.14;100.00;96085.16;10444847;28;1894;-70
2022/05/06 16:57:44;;;;;;;;;;;13.90;99.90;;;12.93;100.00;96083.72;10457784;28;1845;-70
2022/05/06 17:02:47;;;;;;;;;;;13.90;99.90;;;12.94;100.00;96080.75;10419442;28;1774;-71
2022/05/06 17:07:50;;;;;;;;;;;13.80;99.90;;;12.87;100.00;96085.66;10433512;28;1963;-71
2022/05/06 17:12:53;;;;;;;;;;;13.70;99.90;;;12.80;100.00;96081.66;10431206;28;1946;-72
2022/05/06 17:17:57;;;;;;;;;;;13.80;99.90;;;12.93;100.00;96084.53;10438391;28;2186;-71
2022/05/06 17:23:07;;;;;;;;;;;13.70;99.90;;;12.84;100.00;96082.69;10425447;28;1940;-70
2022/05/06 17:28:10;;;;;;;;;;;13.80;99.90;;;12.79;100.00;96088.09;10421888;28;1984;-72
2022/05/06 17:33:13;;;;;;;;;;;13.70;99.90;;;12.74;100.00;96086.28;10443821;28;2206;-71
2022/05/06 17:38:16;;;;;;;;;;;13.60;99.90;;;12.68;100.00;96088.19;10420534;28;2218;-70
2022/05/06 17:43:19;;;;;;;;;;;13.60;99.90;;;12.64;100.00;96091.72;10437077;28;1840;-72
2022/05/06 17:48:23;;;;;;;;;;;13.60;99.90;;;12.60;100.00;96091.47;10436960;28;2051;-71
2022/05/06 17:53:26;;;;;;;;;;;13.60;99.90;;;12.53;100.00;96093.66;10444797;28;1907;-70
2022/05/06 17:58:29;;;;;;;;;;;13.50;99.90;;;12.45;100.00;96100.44;10444791;28;1884;-71
2022/05/06 18:03:32;;;;;;;;;;;13.40;99.90;;;12.40;100.00;96097.75;10441988;28;1809;-71
2022/05/06 18:08:36;;;;;;;;;;;13.30;99.90;;;12.35;100.00;96100.50;10437128;28;1778;-71
2022/05/06 18:13:40;;;;;;;;;;;13.40;99.90;;;12.38;100.00;96107.22;10432779;28;1910;-71
2022/05/06 18:18:43;;;;;;;;;;;13.30;99.90;;;12.28;100.00;96100.00;10445015;28;1877;-71
2022/05/06 18:23:46;;;;;;;;;;;13.20;99.90;;;12.20;100.00;96111.31;10441292;28;2465;-71
2022/05/06 18:28:49;;;;;;;;;;;13.20;99.90;;;12.12;100.00;96114.59;10447465;28;1858;-73
2022/05/06 18:33:52;;;;;;;;;;;;;;;12.09;100.00;96115.97;10430148;28;1910;-72
2022/05/06 18:38:55;;;;;;;;;;;;;;;12.13;100.00;96114.31;10419526;28;1883;-72
2022/05/06 18:44:00;;;;;;;;;;;;;;;12.05;100.00;96116.78;10430531;28;1869;-71
2022/05/06 18:49:08;;;;;;;;;;;;;;;11.99;100.00;96123.25;10414337;28;2270;-73
2022/05/06 18:54:11;;;;;;;;;;;;;;;11.99;100.00;96128.66;10441991;28;2033;-72
2022/05/06 18:59:15;;;;;;;;;;;;;;;11.98;100.00;96132.44;10441716;28;1808;-73
2022/05/06 19:04:19;;;;;;;;;;;;;;;11.95;100.00;96146.44;10415148;28;1837;-72
2022/05/06 19:09:24;;;;;;;;;;;;;;;11.90;100.00;96152.66;10428144;28;1951;-72
2022/05/06 19:14:28;;;;;;;;;;;;;;;11.94;100.00;96158.28;10430591;28;1910;-73
2022/05/06 19:19:32;;;;;;;;;;;;;;;11.88;100.00;96165.56;10426512;28;1842;-71
2022/05/06 19:24:46;;;;;;;;;;;;;;;11.96;100.00;96159.66;10415421;28;1865;-72
2022/05/06 19:29:49;;;;;;;;;;;;;;;11.96;100.00;96164.22;10436453;28;1869;-72
2022/05/06 19:34:55;;;;;;;;;;;;;;;11.88;100.00;96163.69;10443900;28;1965;-71
2022/05/06 19:39:59;;;;;;;;;;;;;;;11.92;100.00;96172.03;10415254;28;1761;-72
2022/05/06 19:45:03;;;;;;;;;;;;;;;11.90;100.00;96169.63;10449491;28;1857;-71
2022/05/06 19:50:08;;;;;;;;;;;;;;;11.88;100.00;96166.38;10418882;28;1805;-71
2022/05/06 19:55:12;;;;;;;;;;;;;;;11.97;100.00;96163.16;10436984;28;1966;-71
2022/05/06 20:00:16;;;;;;;;;;;;;;;11.99;100.00;96171.75;10433925;28;1853;-72
2022/05/06 20:05:20;;;;;;;;;;;;;;;11.99;100.00;96164.47;10433772;28;1826;-70
2022/05/06 20:10:23;;;;;;;;;;;;;;;11.98;100.00;96175.53;10433890;28;1984;-71
2022/05/06 20:15:27;;;;;;;;;;;;;;;11.96;100.00;96169.59;10415899;28;2239;-71
2022/05/06 20:20:30;;;;;;;;;;;;;;;12.13;100.00;96170.09;10430952;28;2070;-71
2022/05/06 20:25:35;;;;;;;;;;;;;;;12.04;100.00;96163.66;10428723;28;1806;-70
2022/05/06 20:30:38;;;;;;;;;;;;;;;11.92;100.00;96168.53;10412433;28;2650;-71
2022/05/06 20:35:42;;;;;;;;;;;;;;;11.90;100.00;96175.03;10432017;28;1986;-71
2022/05/06 20:40:45;;;;;;;;;;;;;;;11.83;100.00;96173.66;10429444;28;1845;-71
2022/05/06 20:45:48;;;;;;;;;;;;;;;11.83;100.00;96168.28;10436425;28;1743;-69
2022/05/06 20:50:52;;;;;;;;;;;;;;;11.84;100.00;96176.09;10443497;28;1849;-71
2022/05/06 20:55:56;;;;;;;;;;;;;;;11.81;100.00;96165.84;10438105;28;1944;-71
2022/05/06 21:01:01;;;;;;;;;;;;;;;11.83;100.00;96162.88;10418136;28;1833;-70
2022/05/06 21:06:04;;;;;;;;;;;;;;;11.84;100.00;96164.53;10431555;28;1876;-71
2022/05/06 21:16:30;;;;;;;;;;;;;;;11.87;100.00;96153.19;10428813;28;1894;-72
2022/05/06 21:21:33;;;;;;;;;;;;;;;11.89;100.00;96159.09;10445202;28;1874;-71
2022/05/06 21:26:36;;;;;;;;;;;12.80;99.90;;;11.81;100.00;96154.28;10437455;28;1849;-71
2022/05/06 21:31:40;;;;;;;;;;;;;;;11.76;100.00;96152.34;10438583;28;1841;-71
2022/05/06 21:36:44;;;;;;;;;;;;;;;11.68;100.00;96150.22;10433118;28;1918;-70
2022/05/06 21:41:48;;;;;;;;;;;;;;;11.58;100.00;96159.13;10419652;28;1873;-70
2022/05/06 21:46:52;;;;;;;;;;;;;;;11.49;100.00;96163.44;10430907;28;1841;-70
2022/05/06 21:51:56;;;;;;;;;;;;;;;11.48;100.00;96166.41;10421522;28;1861;-71
2022/05/06 21:57:00;;;;;;;;;;;;;;;11.55;100.00;96166.94;10421131;28;1914;-71
2022/05/06 22:02:03;;;;;;;;;;;;;;;11.64;100.00;96155.34;10438357;28;1771;-71
2022/05/06 22:07:08;;;;;;;;;;;;;;;11.70;100.00;96153.44;10422903;28;1845;-70
2022/05/06 22:12:12;;;;;;;;;;;;;;;11.70;100.00;96156.13;10438983;28;1790;-71
2022/05/06 22:17:17;;;;;;;;;;;;;;;11.67;100.00;96154.00;10428536;28;1992;-71
2022/05/06 22:22:21;;;;;;;;;;;;;;;11.69;100.00;96145.63;10464819;28;1818;-70
2022/05/06 22:27:25;;;;;;;;;;;;;;;11.67;100.00;96140.53;10416219;28;1829;-71
2022/05/06 22:32:29;;;;;;;;;;;;;;;11.65;100.00;96148.09;10446129;28;1873;-69
2022/05/06 22:37:33;;;;;;;;;;;;;;;11.63;100.00;96147.53;10424841;28;1903;-69
2022/05/06 22:47:59;;;;;;;;;;;;;;;11.60;100.00;96143.50;10424447;28;1794;-71
2022/05/06 22:53:02;;;;;;;;;;;;;;;11.59;100.00;96146.47;10439168;28;1797;-71
2022/05/06 22:58:06;;;;;;;;;;;;;;;11.53;100.00;96145.66;10435346;28;1981;-71
2022/05/06 23:03:09;;;;;;;;;;;;;;;11.56;100.00;96155.06;10421408;28;1995;-71
2022/05/06 23:08:13;;;;;;;;;;;;;;;11.42;100.00;96148.63;10432638;28;1829;-71
2022/05/06 23:13:17;;;;;;;;;;;;;;;11.20;100.00;96141.63;10419542;28;1792;-72
2022/05/06 23:18:20;;;;;;;;;;;;;;;11.13;100.00;96148.31;10424324;28;1957;-72
2022/05/06 23:23:24;;;;;;;;;;;;;;;11.11;100.00;96145.91;10433432;28;1838;-72
2022/05/06 23:28:27;;;;;;;;;;;;;;;11.12;100.00;96144.84;10438434;28;1852;-73
2022/05/06 23:33:31;;;;;;;;;;;;;;;11.05;100.00;96146.97;10414078;28;1881;-74
2022/05/06 23:38:34;;;;;;;;;;;;;;;11.02;100.00;96153.72;10435440;28;1975;-74
2022/05/06 23:43:38;;;;;;;;;;;;;;;11.08;100.00;96154.53;10416267;28;1790;-73
2022/05/06 23:48:41;;;;;;;;;;;;;;;11.10;100.00;96155.88;10416963;28;1884;-74
2022/05/06 23:53:45;;;;;;;;;;;;;;;11.07;100.00;96150.22;10430483;28;1846;-74
2022/05/06 23:58:48;;;;;;;;;;;;;;;11.08;100.00;96152.66;10421882;28;1867;-74
